Time;durP1;ratioP1;P1;durP2;ratioP2;P2;SDS_P1;SDS_P2;PMS_P1;PMS_P2;Temp;Humidity;BMP_temperature;BMP_pressure;BME280_temperature;BME280_humidity;BME280_pressure;Samples;Min_cycle;Max_cycle;Signal;HPM_P1;HPM_P2
2022/10/23 00:01:43;;;;;;;19.52;4.90;;;;;;;13.42;100.00;101040.50;5078635;28;20078;-60
2022/10/23 00:04:15;;;;;;;23.25;6.45;;;;;;;13.39;100.00;101035.53;5094698;28;20047;-60
2022/10/23 00:06:43;;;;;;;16.70;5.05;;;;;;;13.35;100.00;101036.84;5094769;28;20509;-62
2022/10/23 00:09:11;;;;;;;16.52;4.35;;;;;;;13.34;100.00;101038.69;5095304;28;20113;-61
2022/10/23 00:11:39;;;;;;;19.90;5.03;;;;;;;13.32;100.00;101039.84;5095382;28;20601;-60
2022/10/23 00:14:06;;;;;;;15.77;5.13;;;;;;;13.26;100.00;101030.63;5094918;28;20043;-60
2022/10/23 00:16:33;;;;;;;23.33;4.95;;;;;;;13.32;100.00;101023.88;5095257;28;20067;-60
2022/10/23 00:19:01;;;;;;;19.88;5.50;;;;;;;13.24;100.00;101020.16;5112992;28;20062;-60
2022/10/23 00:21:28;;;;;;;31.13;5.45;;;;;;;13.21;100.00;101022.31;5113439;28;20047;-60
2022/10/23 00:23:55;;;;;;;21.50;5.00;;;;;;;13.10;100.00;101023.47;5113054;28;20047;-60
2022/10/23 00:26:22;;;;;;;19.30;5.43;;;;;;;13.17;100.00;101028.94;5113336;28;20043;-60
2022/10/23 00:28:51;;;;;;;21.15;5.15;;;;;;;13.19;100.00;101033.13;5112806;28;20039;-60
2022/10/23 00:31:20;;;;;;;20.73;4.88;;;;;;;13.19;100.00;101030.47;5113075;28;20044;-60
2022/10/23 00:33:47;;;;;;;18.42;5.20;;;;;;;13.15;100.00;101026.47;5095252;28;20101;-61
2022/10/23 00:36:16;;;;;;;26.42;4.97;;;;;;;13.17;100.00;101026.28;5112983;28;20074;-61
2022/10/23 00:38:44;;;;;;;18.23;4.95;;;;;;;13.14;100.00;101032.78;5113064;28;20512;-61
2022/10/23 00:41:17;;;;;;;17.33;4.30;;;;;;;13.12;100.00;101031.28;5112536;28;20427;-61
2022/10/23 00:44:22;;;;;;;15.48;4.82;;;;;;;13.10;100.00;101031.47;5113070;28;20059;-61
2022/10/23 00:46:49;;;;;;;24.10;5.40;;;;;;;13.01;100.00;101030.59;5112412;28;20130;-61
2022/10/23 00:49:16;;;;;;;16.88;4.88;;;;;;;12.99;100.00;101023.78;5112597;28;20404;-61
2022/10/23 00:51:50;;;;;;;15.98;5.00;;;;;;;12.98;100.00;101016.78;5073198;28;20055;-61
2022/10/23 00:54:20;;;;;;;16.77;4.88;;;;;;;12.92;100.00;101014.78;5114538;28;20039;-61
2022/10/23 00:56:50;;;;;;;19.60;4.95;;;;;;;12.85;100.00;101009.25;5116357;28;20455;-61
2022/10/23 00:59:17;;;;;;;19.73;4.60;;;;;;;12.87;100.00;101010.75;5098025;28;20043;-61
2022/10/23 01:01:44;;;;;;;18.42;5.03;;;;;;;12.89;100.00;101009.75;5116747;28;20135;-61
2022/10/23 01:04:11;;;;;;;21.55;6.05;;;;;;;12.89;100.00;101004.44;5115759;28;20074;-61
2022/10/23 01:07:09;;;;;;;14.68;4.60;;;;;;;12.94;100.00;101012.78;5116275;28;20047;-61
2022/10/23 01:09:43;;;;;;;20.42;5.00;;;;;;;12.94;100.00;101016.28;5116048;28;20040;-61
2022/10/23 01:12:37;;;;;;;14.35;4.60;;;;;;;12.98;100.00;101003.47;5116521;28;20055;-61
2022/10/23 01:15:20;;;;;;;20.38;4.90;;;;;;;12.93;100.00;101005.78;5114007;28;20471;-61
2022/10/23 01:17:56;;;;;;;23.75;5.25;;;;;;;12.93;100.00;101005.78;5115981;28;20134;-61
2022/10/23 01:20:45;;;;;;;15.57;4.85;;;;;;;12.91;100.00;101005.09;5114716;28;20485;-61
2022/10/23 01:23:52;;;;;;;20.27;4.70;;;;;;;12.83;100.00;101003.28;5115842;28;20200;-61
2022/10/23 01:26:52;;;;;;;18.02;4.50;;;;;;;12.84;100.00;101003.09;5115783;28;20064;-61
2022/10/23 01:29:32;;;;;;;15.63;4.70;;;;;;;12.85;100.00;101002.09;5115805;28;20497;-60
2022/10/23 01:32:05;;;;;;;16.77;4.57;;;;;;;12.88;100.00;101000.94;5115963;28;20447;-60
2022/10/23 01:34:47;;;;;;;21.20;5.13;;;;;;;12.84;100.00;100994.25;5115649;28;20040;-60
2022/10/23 01:37:21;;;;;;;17.88;5.05;;;;;;;12.81;100.00;100991.94;5115608;28;20454;-61
2022/10/23 01:39:54;;;;;;;18.92;4.70;;;;;;;12.77;100.00;100985.25;5115855;28;20130;-59
2022/10/23 01:42:29;;;;;;;13.77;4.47;;;;;;;12.83;100.00;100979.31;5116027;28;20404;-60
2022/10/23 01:45:07;;;;;;;14.82;4.38;;;;;;;12.85;100.00;100978.13;5115680;28;20044;-59
2022/10/23 01:47:41;;;;;;;19.17;4.85;;;;;;;12.82;100.00;100969.63;5115471;28;20048;-59
2022/10/23 01:50:12;;;;;;;14.50;4.35;;;;;;;12.83;100.00;100966.00;5115087;28;20028;-59
2022/10/23 01:52:41;;;;;;;14.18;4.55;;;;;;;12.83;100.00;100963.34;5077824;28;20051;-59
2022/10/23 01:55:11;;;;;;;11.60;4.20;;;;;;;12.87;100.00;100972.66;5097053;28;20047;-59
2022/10/23 01:57:40;;;;;;;18.55;5.00;;;;;;;12.93;100.00;100965.84;5115729;28;20071;-59
2022/10/23 02:00:12;;;;;;;14.70;4.35;;;;;;;12.96;100.00;100969.00;5115156;28;20489;-59
2022/10/23 02:02:57;;;;;;;19.58;4.72;;;;;;;12.98;100.00;100955.53;5115646;28;20044;-59
2022/10/23 02:05:30;;;;;;;23.40;5.55;;;;;;;12.95;100.00;100954.03;5114446;28;20067;-59
2022/10/23 02:08:00;;;;;;;17.27;4.10;;;;;;;12.92;100.00;100948.22;5097463;28;20035;-59
2022/10/23 02:10:33;;;;;;;19.65;4.57;;;;;;;12.98;100.00;100944.88;5115149;28;20092;-59
2022/10/23 02:13:24;;;;;;;16.50;4.75;;;;;;;12.91;100.00;100947.34;5115324;28;20043;-59
2022/10/23 02:16:02;;;;;;;25.98;4.97;;;;;;;12.96;100.00;100950.38;5079945;28;20210;-62
2022/10/23 02:18:39;;;;;;;15.55;4.50;;;;;;;12.96;100.00;100938.88;5115085;28;20044;-60
2022/10/23 02:21:11;;;;;;;13.98;4.18;;;;;;;12.94;100.00;100933.72;5114758;28;20036;-60
2022/10/23 02:23:54;;;;;;;25.17;4.95;;;;;;;12.98;100.00;100929.72;5115114;28;20040;-60
2022/10/23 02:26:25;;;;;;;;;;;;;;;12.94;100.00;100932.91;5115609;28;20043;-60
2022/10/23 02:29:03;;;;;;;16.50;4.63;;;;;;;13.01;100.00;100929.41;5114935;28;19972;-60
2022/10/23 02:31:32;;;;;;;13.48;4.63;;;;;;;12.94;100.00;100928.41;5114836;28;20374;-60
2022/10/23 02:33:59;;;;;;;21.77;4.32;;;;;;;12.99;100.00;100922.59;5114544;28;20377;-60
2022/10/23 02:36:25;;;;;;;13.63;4.47;;;;;;;13.03;100.00;100921.25;5096601;28;20096;-60
2022/10/23 02:38:52;;;;;;;14.43;4.53;;;;;;;12.94;100.00;100916.94;5114946;28;20051;-60
2022/10/23 02:41:50;;;;;;;16.58;4.78;;;;;;;12.99;100.00;100912.75;5096172;28;20396;-59
2022/10/23 02:44:37;;;;;;;16.58;4.47;;;;;;;13.00;100.00;100908.25;5114498;28;20101;-60
2022/10/23 02:47:29;;;;;;;15.05;4.45;;;;;;;13.00;100.00;100909.09;5113892;28;20064;-60
2022/10/23 02:50:23;;;;;;;13.48;4.07;;;;;;;12.98;100.00;100905.75;5114168;28;20493;-59
2022/10/23 02:53:01;;;;;;;23.02;5.00;;;;;;;12.97;100.00;100905.91;5076379;28;20423;-59
2022/10/23 02:58:26;;;;;;;16.27;4.60;;;;;;;13.01;100.00;100901.94;5102558;27;20861;-59
2022/10/23 03:01:02;;;;;;;16.10;4.43;;;;;;;12.98;100.00;100903.09;5070507;28;20140;-59
2022/10/23 03:03:33;;;;;;;24.75;4.82;;;;;;;12.92;100.00;100901.09;5070124;28;20043;-59
2022/10/23 03:06:01;;;;;;;24.60;4.68;;;;;;;13.01;100.00;100902.78;5085708;28;20052;-59
2022/10/23 03:08:28;;;;;;;15.27;4.53;;;;;;;12.94;100.00;100898.28;5070216;28;20053;-61
2022/10/23 03:10:54;;;;;;;18.10;4.25;;;;;;;12.99;100.00;100901.28;5070447;28;20051;-61
2022/10/23 03:13:22;;;;;;;13.23;4.28;;;;;;;12.97;100.00;100890.81;5069140;28;20056;-61
2022/10/23 03:15:49;;;;;;;16.35;4.45;;;;;;;13.03;100.00;100886.63;5063010;28;20073;-60
2022/10/23 03:18:15;;;;;;;18.40;4.18;;;;;;;13.05;100.00;100881.97;5049666;28;20041;-59
2022/10/23 03:20:46;;;;;;;12.52;4.03;;;;;;;13.03;100.00;100878.66;5069894;28;20048;-59
2022/10/23 03:23:14;;;;;;;13.68;4.28;;;;;;;12.99;100.00;100869.34;5069036;28;20048;-60
2022/10/23 03:25:41;;;;;;;16.50;4.47;;;;;;;13.03;100.00;100868.00;5068707;28;20475;-60
2022/10/23 03:28:20;;;;;;;18.15;4.53;;;;;;;13.02;100.00;100866.31;5070084;28;20049;-60
2022/10/23 03:30:47;;;;;;;17.30;4.05;;;;;;;13.05;100.00;100858.81;5069881;28;20352;-60
2022/10/23 03:33:14;;;;;;;19.70;4.18;;;;;;;13.05;100.00;100850.00;5069399;28;20099;-59
2022/10/23 03:35:41;;;;;;;16.98;4.18;;;;;;;13.03;100.00;100849.34;5069779;28;20075;-61
2022/10/23 03:38:08;;;;;;;14.00;3.95;;;;;;;13.07;100.00;100848.00;5069435;28;20041;-60
2022/10/23 03:40:34;;;;;;;12.27;4.20;;;;;;;13.06;100.00;100849.84;5069759;28;20434;-60
2022/10/23 03:43:01;;;;;;;19.98;3.88;;;;;;;12.95;100.00;100844.88;5069431;28;20397;-60
2022/10/23 03:45:29;;;;;;;18.40;4.20;;;;;;;13.04;100.00;100845.69;5069587;28;20067;-60
2022/10/23 03:47:56;;;;;;;15.32;4.40;;;;;;;13.01;100.00;100854.84;5069730;28;20048;-60
2022/10/23 03:50:23;;;;;;;15.13;4.07;;;;;;;13.08;100.00;100857.69;5068089;28;20044;-60
2022/10/23 03:52:50;;;;;;;15.60;4.07;;;;;;;13.09;100.00;100859.31;5031626;28;20040;-61
2022/10/23 03:55:16;;;;;;;13.23;4.38;;;;;;;13.07;100.00;100859.50;5068883;28;20041;-61
2022/10/23 03:57:43;;;;;;;14.82;4.30;;;;;;;13.05;100.00;100866.81;5068956;28;20049;-61
2022/10/23 04:00:10;;;;;;;14.90;4.18;;;;;;;13.03;100.00;100865.34;5069119;28;20076;-61
2022/10/23 04:02:46;;;;;;;16.92;4.30;;;;;;;13.04;100.00;100864.31;5069224;28;20044;-59
2022/10/23 04:05:13;;;;;;;18.10;3.97;;;;;;;12.96;100.00;100859.00;5067933;28;20044;-61
2022/10/23 04:07:48;;;;;;;20.02;4.15;;;;;;;13.00;100.00;100866.47;5065640;28;20497;-61
2022/10/23 04:10:15;;;;;;;13.80;4.13;;;;;;;13.06;100.00;100857.84;5055943;28;20071;-62
2022/10/23 04:12:43;;;;;;;15.05;4.07;;;;;;;13.04;100.00;100864.31;5055925;28;20060;-61
2022/10/23 04:15:10;;;;;;;23.02;4.38;;;;;;;12.95;100.00;100858.19;5055464;28;20048;-60
2022/10/23 04:17:39;;;;;;;17.17;3.92;;;;;;;12.93;100.00;100846.03;5055632;28;20132;-60
2022/10/23 04:20:07;;;;;;;18.42;4.57;;;;;;;12.92;100.00;100845.19;5055642;28;20048;-60
2022/10/23 04:22:33;;;;;;;11.38;4.20;;;;;;;12.93;100.00;100854.81;5054469;28;20375;-60
2022/10/23 04:25:00;;;;;;;15.52;3.97;;;;;;;12.89;100.00;100844.69;5055475;28;20041;-60
2022/10/23 04:27:28;;;;;;;17.63;3.95;;;;;;;12.87;100.00;100843.03;5055852;28;20051;-60
2022/10/23 04:29:55;;;;;;;15.77;4.10;;;;;;;12.92;100.00;100845.19;5054306;28;20069;-60
2022/10/23 04:32:23;;;;;;;13.38;3.88;;;;;;;12.97;100.00;100842.88;5055503;28;20103;-61
2022/10/23 04:34:51;;;;;;;14.88;4.15;;;;;;;12.97;100.00;100840.22;5055328;28;20087;-60
2022/10/23 04:37:17;;;;;;;19.23;3.85;;;;;;;12.93;100.00;100840.69;5055035;28;20033;-61
2022/10/23 04:39:44;;;;;;;13.48;4.13;;;;;;;12.89;100.00;100836.72;5055335;28;20059;-60
2022/10/23 04:42:14;;;;;;;10.50;3.72;;;;;;;12.90;100.00;100833.88;5053947;28;20518;-60
2022/10/23 04:44:40;;;;;;;15.35;4.00;;;;;;;12.93;100.00;100833.53;5055276;28;20069;-60
2022/10/23 04:47:07;;;;;;;13.88;4.00;;;;;;;12.92;100.00;100831.88;5055021;28;20041;-60
2022/10/23 04:49:43;;;;;;;14.15;4.05;;;;;;;12.95;100.00;100828.03;5054122;28;20045;-60
2022/10/23 04:52:19;;;;;;;20.45;4.68;;;;;;;12.90;100.00;100822.38;5017621;28;20075;-60
2022/10/23 04:55:06;;;;;;;12.57;3.60;;;;;;;12.92;100.00;100818.56;5055085;28;20517;-60
2022/10/23 04:57:46;;;;;;;15.15;4.03;;;;;;;12.90;100.00;100815.25;5054256;28;20045;-59
2022/10/23 05:00:14;;;;;;;23.48;4.60;;;;;;;12.93;100.00;100808.75;5087450;28;20041;-59
2022/10/23 05:02:52;;;;;;;12.93;3.78;;;;;;;12.89;100.00;100813.56;5054852;28;20049;-59
2022/10/23 05:05:19;;;;;;;15.48;3.75;;;;;;;12.97;100.00;100813.59;5053961;28;20502;-60
2022/10/23 05:07:55;;;;;;;14.38;4.28;;;;;;;12.98;100.00;100809.06;5054722;28;20048;-60
2022/10/23 05:10:29;;;;;;;16.92;4.53;;;;;;;12.94;100.00;100807.75;5054942;28;20072;-60
2022/10/23 05:13:08;;;;;;;14.82;3.83;;;;;;;12.98;100.00;100814.41;5054575;28;20051;-60
2022/10/23 05:15:35;;;;;;;33.58;4.43;;;;;;;12.92;100.00;100815.91;5053432;28;20049;-60
2022/10/23 05:18:13;;;;;;;16.42;4.05;;;;;;;12.95;100.00;100812.06;5057093;28;20479;-60
2022/10/23 05:20:41;;;;;;;11.02;3.80;;;;;;;12.96;100.00;100806.56;5052890;28;20045;-60
2022/10/23 05:23:12;;;;;;;15.43;4.10;;;;;;;12.96;100.00;100797.75;5054331;28;20041;-60
2022/10/23 05:25:42;;;;;;;14.80;4.03;;;;;;;12.99;100.00;100797.44;5054425;28;20514;-60
2022/10/23 05:28:14;;;;;;;22.90;4.05;;;;;;;12.93;100.00;100796.25;5054429;28;20566;-60
2022/10/23 05:30:41;;;;;;;12.93;4.22;;;;;;;12.96;100.00;100790.59;5054211;28;20041;-60
2022/10/23 05:33:09;;;;;;;12.55;3.90;;;;;;;12.96;100.00;100782.63;5054041;28;20037;-59
2022/10/23 05:35:43;;;;;;;19.90;4.83;;;;;;;12.90;100.00;100779.78;5052873;28;20147;-59
2022/10/23 05:38:13;;;;;;;19.30;3.75;;;;;;;12.88;100.00;100772.00;5054127;28;20295;-59
2022/10/23 05:40:39;;;;;;;13.52;3.95;;;;;;;12.83;100.00;100772.47;5054015;28;20410;-59
2022/10/23 05:43:11;;;;;;;13.80;3.75;;;;;;;12.88;100.00;100777.31;5054112;28;20127;-59
2022/10/23 05:45:58;;;;;;;17.05;3.95;;;;;;;12.84;100.00;100765.31;5053979;28;20382;-59
2022/10/23 05:48:49;;;;;;;11.13;3.83;;;;;;;12.85;100.00;100761.66;5052502;28;20495;-59
2022/10/23 05:51:37;;;;;;;9.55;3.60;;;;;;;12.85;100.00;100764.34;5016023;28;21046;-59
2022/10/23 05:54:24;;;;;;;18.88;4.13;;;;;;;12.89;100.00;100772.81;5053453;28;20250;-59
2022/10/23 05:56:57;;;;;;;13.07;4.25;;;;;;;12.86;100.00;100763.31;5053442;28;20049;-60
2022/10/23 05:59:41;;;;;;;13.50;3.97;;;;;;;12.81;100.00;100763.00;5053651;28;20122;-61
2022/10/23 06:02:28;;;;;;;14.05;4.50;;;;;;;12.80;100.00;100754.16;5053791;28;20045;-60
2022/10/23 06:05:01;;;;;;;29.88;3.72;;;;;;;12.82;100.00;100751.34;5053012;28;20060;-60
2022/10/23 06:07:43;;;;;;;16.23;4.38;;;;;;;12.80;100.00;100748.03;5053730;28;20051;-60
2022/10/23 06:10:10;;;;;;;15.25;4.05;;;;;;;12.77;100.00;100743.88;5053712;28;20678;-60
2022/10/23 06:12:41;;;;;;;15.85;4.65;;;;;;;12.77;100.00;100737.69;5053703;28;20099;-60
2022/10/23 06:15:12;;;;;;;11.20;4.23;;;;;;;12.76;100.00;100744.88;5053273;28;20594;-60
2022/10/23 06:17:53;;;;;;;12.30;3.60;;;;;;;12.80;100.00;100742.69;5053156;28;20341;-60
2022/10/23 06:20:19;;;;;;;13.02;4.13;;;;;;;12.81;100.00;100739.06;5053093;28;20044;-60
2022/10/23 06:22:58;;;;;;;14.18;3.70;;;;;;;12.85;100.00;100743.03;5053650;28;20380;-60
2022/10/23 06:25:52;;;;;;;13.70;4.20;;;;;;;12.82;100.00;100736.22;5053242;28;20506;-60
2022/10/23 06:28:24;;;;;;;21.23;3.80;;;;;;;12.85;100.00;100738.53;5053130;28;20033;-60
2022/10/23 06:30:51;;;;;;;17.42;3.78;;;;;;;12.85;100.00;100732.38;5053008;28;20044;-61
2022/10/23 06:33:19;;;;;;;18.23;4.03;;;;;;;12.81;100.00;100734.56;5052275;28;20437;-60
2022/10/23 06:35:46;;;;;;;11.77;3.67;;;;;;;12.90;100.00;100731.84;5051643;28;20048;-60
2022/10/23 06:38:13;;;;;;;15.88;3.83;;;;;;;12.90;100.00;100734.53;5053278;28;20510;-60
2022/10/23 06:40:52;;;;;;;11.95;3.90;;;;;;;12.96;100.00;100740.00;5051731;28;20045;-60
2022/10/23 06:43:25;;;;;;;23.45;3.53;;;;;;;12.96;100.00;100731.19;5053376;28;20056;-60
2022/10/23 06:46:11;;;;;;;13.32;3.75;;;;;;;13.00;100.00;100728.00;5052886;28;20127;-60
2022/10/23 06:48:58;;;;;;;37.35;5.95;;;;;;;12.99;100.00;100725.53;5052903;28;20384;-60
2022/10/23 06:51:29;;;;;;;14.95;4.30;;;;;;;13.05;100.00;100720.34;5013847;28;20052;-60
2022/10/23 06:53:56;;;;;;;17.83;3.60;;;;;;;13.09;100.00;100717.34;5053267;28;20072;-60
2022/10/23 06:56:43;;;;;;;11.05;3.60;;;;;;;13.15;100.00;100712.19;5052242;28;20059;-60
2022/10/23 06:59:10;;;;;;;16.75;3.65;;;;;;;13.20;100.00;100716.97;5052905;28;20387;-60
2022/10/23 07:01:37;;;;;;;15.70;3.92;;;;;;;13.27;100.00;100711.81;5051654;28;20090;-60
2022/10/23 07:04:05;;;;;;;11.23;3.17;;;;;;;13.24;100.00;100708.50;5052280;28;20379;-60
2022/10/23 07:06:32;;;;;;;12.52;3.40;;;;;;;13.30;100.00;100714.09;5052265;28;20124;-60
2022/10/23 07:08:59;;;;;;;13.45;3.47;;;;;;;13.29;100.00;100723.94;5076620;28;20128;-60
2022/10/23 07:11:45;;;;;;;26.10;3.60;;;;;;;13.35;100.00;100731.28;5052571;28;20056;-60
2022/10/23 07:14:12;;;;;;;14.02;4.10;;;;;;;13.35;100.00;100723.28;5052120;28;20037;-60
2022/10/23 07:16:39;;;;;;;15.38;3.67;;;;;;;13.36;100.00;100716.13;5052152;28;20041;-60
2022/10/23 07:19:07;;;;;;;14.95;3.92;;;;;;;13.36;100.00;100719.59;5063151;28;20076;-60
2022/10/23 07:21:53;;;;;;;15.80;3.95;;;;;;;13.44;100.00;100724.91;5052379;28;20067;-60
2022/10/23 07:24:35;;;;;;;16.75;4.25;;;;;;;13.51;99.64;100714.38;5052193;28;20033;-60
2022/10/23 07:27:12;;;;;;;;;;;;;;;13.50;99.92;100712.72;5053123;28;20063;-61
2022/10/23 07:29:40;;;;;;;8.93;3.50;;;;;;;13.50;99.50;100712.72;5052563;28;20381;-60
2022/10/23 07:32:08;;;;;;;20.65;3.78;;;;;;;13.56;99.31;100704.03;5052539;28;20049;-60
2022/10/23 07:34:54;;;;;;;18.45;4.40;;;;;;;13.66;98.72;100697.66;5052267;28;20144;-61
2022/10/23 07:37:28;;;;;;;13.38;3.85;;;;;;;13.61;98.70;100699.00;5051209;28;20121;-61
2022/10/23 07:39:57;;;;;;;15.90;3.72;;;;;;;13.72;98.49;100689.78;5052589;28;20120;-60
2022/10/23 07:42:24;;;;;;;12.77;3.72;;;;;;;13.74;97.48;100690.44;5052239;28;20527;-60
2022/10/23 07:44:51;;;;;;;27.40;5.55;;;;;;;13.81;97.14;100693.25;5055484;28;20398;-60
2022/10/23 07:47:17;;;;;;;13.18;3.50;;;;;;;13.92;96.27;100689.34;5089067;28;20052;-60
2022/10/23 07:49:48;;;;;;;12.17;3.60;;;;;;;14.08;95.63;100691.91;5055993;28;20128;-60
2022/10/23 07:52:15;;;;;;;16.92;3.95;;;;;;;14.17;94.92;100689.97;5018383;28;20652;-60
2022/10/23 07:55:02;;;;;;;13.35;3.40;;;;;;;14.24;93.98;100687.41;5055708;28;20465;-60
2022/10/23 07:57:31;;;;;;;12.05;3.13;;;;;;;14.37;94.10;100687.63;5055686;28;20048;-60
2022/10/23 08:00:10;;;;;;;14.35;4.18;;;;;;;14.51;93.04;100692.19;5055606;28;20132;-60
2022/10/23 08:02:42;;;;;;;14.35;3.38;;;;;;;14.72;91.65;100688.84;5056195;28;20048;-61
2022/10/23 08:05:10;;;;;;;14.18;3.35;;;;;;;14.81;90.97;100678.91;5055193;28;20403;-61
2022/10/23 08:07:45;;;;;;;11.50;3.13;;;;;;;15.02;89.56;100685.38;5055975;28;20380;-61
2022/10/23 08:10:12;;;;;;;9.98;3.50;;;;;;;15.28;88.72;100682.19;5055780;28;20552;-61
2022/10/23 08:12:41;;;;;;;13.23;3.22;;;;;;;15.30;87.64;100680.19;5055883;28;20048;-60
2022/10/23 08:15:09;;;;;;;12.73;3.35;;;;;;;15.35;87.54;100675.94;5055563;28;20401;-61
2022/10/23 08:17:49;;;;;;;9.75;3.40;;;;;;;15.43;86.92;100677.69;5055332;28;20106;-61
2022/10/23 08:20:21;;;;;;;10.95;3.30;;;;;;;15.61;86.75;100685.28;5055439;28;20401;-61
2022/10/23 08:22:50;;;;;;;34.83;3.72;;;;;;;15.62;86.18;100684.25;5055164;28;20532;-61
2022/10/23 08:25:21;;;;;;;12.90;3.47;;;;;;;15.65;84.65;100680.41;5055401;28;20037;-61
2022/10/23 08:27:49;;;;;;;16.25;3.45;;;;;;;15.67;85.67;100681.84;5055212;28;20075;-61
2022/10/23 08:30:18;;;;;;;14.25;3.70;;;;;;;15.78;85.30;100690.44;5055678;28;20552;-60
2022/10/23 08:32:45;;;;;;;11.48;3.42;;;;;;;15.91;84.33;100686.03;5055284;28;20041;-61
2022/10/23 08:35:12;;;;;;;13.57;3.42;;;;;;;15.96;84.32;100687.34;5054982;28;20043;-61
2022/10/23 08:37:40;;;;;;;12.77;3.45;;;;;;;16.05;84.33;100688.88;5055259;28;20132;-61
2022/10/23 08:40:14;;;;;;;20.27;3.50;;;;;;;16.12;83.42;100695.94;5055085;28;20045;-61
2022/10/23 08:43:17;;;;;;;15.23;3.38;;;;;;;16.21;82.19;100688.59;5054925;28;20095;-61
2022/10/23 08:46:03;;;;;;;11.45;3.40;;;;;;;16.17;81.08;100678.47;5054802;28;20048;-61
2022/10/23 08:48:58;;;;;;;11.05;3.25;;;;;;;16.26;81.75;100670.13;5054548;28;20056;-60
2022/10/23 08:51:49;;;;;;;12.70;3.00;;;;;;;16.39;81.41;100688.13;5016921;28;20064;-60
2022/10/23 08:54:23;;;;;;;13.02;3.20;;;;;;;16.43;80.08;100680.53;5055039;28;20053;-60
2022/10/23 08:56:56;;;;;;;9.43;3.40;;;;;;;16.48;78.92;100673.59;5053342;28;20136;-61
2022/10/23 08:59:32;;;;;;;12.05;3.20;;;;;;;16.56;80.60;100677.16;5054910;28;20115;-60
2022/10/23 09:02:15;;;;;;;12.63;3.03;;;;;;;16.64;78.35;100671.63;5054358;28;20048;-61
2022/10/23 09:04:45;;;;;;;11.95;3.47;;;;;;;16.71;79.23;100669.81;5054155;28;20124;-60
2022/10/23 09:07:38;;;;;;;18.35;3.25;;;;;;;16.82;79.22;100647.84;5054285;28;20406;-61
2022/10/23 09:10:24;;;;;;;10.52;3.00;;;;;;;16.91;78.40;100640.50;5054595;28;20049;-60
2022/10/23 09:12:51;;;;;;;12.27;3.30;;;;;;;16.80;77.15;100641.84;5054804;28;20054;-61
2022/10/23 09:15:33;;;;;;;10.55;2.85;;;;;;;16.92;77.79;100634.13;5054271;28;20103;-61
2022/10/23 09:18:10;;;;;;;10.50;2.95;;;;;;;16.86;75.94;100621.50;5063629;28;20041;-61
2022/10/23 09:20:39;;;;;;;7.75;2.75;;;;;;;16.98;76.82;100619.94;5052775;28;20044;-61
2022/10/23 09:23:15;;;;;;;13.00;3.10;;;;;;;16.91;77.25;100605.66;5054348;28;20388;-61
2022/10/23 09:25:44;;;;;;;21.00;2.83;;;;;;;16.89;76.13;100613.91;5047396;28;20460;-61
2022/10/23 09:28:22;;;;;;;11.90;3.60;;;;;;;16.91;76.51;100612.88;5034531;28;20095;-60
2022/10/23 09:30:50;;;;;;;12.80;2.83;;;;;;;17.03;74.98;100604.09;5034309;28;20091;-61
2022/10/23 09:33:21;;;;;;;16.10;2.92;;;;;;;17.00;75.18;100590.25;5034406;28;20491;-60
2022/10/23 09:36:00;;;;;;;11.88;3.35;;;;;;;17.13;75.93;100590.28;5033726;28;20041;-61
2022/10/23 09:38:38;;;;;;;15.30;3.40;;;;;;;17.18;75.56;100589.72;5034062;28;20042;-61
2022/10/23 09:41:13;;;;;;;10.02;3.13;;;;;;;17.26;75.62;100584.16;5032964;28;20049;-61
2022/10/23 09:43:39;;;;;;;10.30;3.00;;;;;;;17.24;74.78;100595.06;5033806;28;20048;-61
2022/10/23 09:46:08;;;;;;;13.70;3.05;;;;;;;17.31;74.25;100595.09;5033912;28;20120;-61
2022/10/23 09:48:36;;;;;;;10.48;2.95;;;;;;;17.37;73.71;100586.28;5034570;28;20051;-61
2022/10/23 09:51:16;;;;;;;15.40;4.28;;;;;;;17.46;73.28;100592.25;5025521;28;21087;-61
2022/10/23 09:53:54;;;;;;;11.07;3.25;;;;;;;17.60;73.29;100580.50;5053577;28;20045;-61
2022/10/23 09:56:30;;;;;;;13.30;3.22;;;;;;;17.69;73.11;100569.59;5053238;28;20403;-61
2022/10/23 09:59:03;;;;;;;10.75;3.03;;;;;;;17.89;73.52;100567.78;5053351;28;20120;-61
2022/10/23 10:01:32;;;;;;;12.57;3.00;;;;;;;17.93;73.18;100562.81;5085662;28;20566;-61
2022/10/23 10:04:32;;;;;;;16.52;3.25;;;;;;;17.98;74.19;100565.72;5052894;28;20110;-60
2022/10/23 10:07:01;;;;;;;14.40;3.00;;;;;;;17.90;72.21;100569.44;5051714;28;20139;-61
2022/10/23 10:09:27;;;;;;;8.07;3.03;;;;;;;17.82;71.51;100565.06;5051483;28;20063;-61
2022/10/23 10:12:00;;;;;;;13.43;3.08;;;;;;;17.71;72.81;100564.84;5053055;28;20037;-61
2022/10/23 10:14:42;;;;;;;11.13;2.72;;;;;;;17.66;73.21;100560.09;5052171;28;20123;-61
2022/10/23 10:17:38;;;;;;;9.35;2.97;;;;;;;17.69;72.93;100550.81;5052817;28;20491;-61
2022/10/23 10:20:37;;;;;;;10.30;2.97;;;;;;;17.55;72.55;100547.28;5053275;28;20091;-61
2022/10/23 10:23:16;;;;;;;8.55;2.70;;;;;;;17.53;72.80;100550.19;5051883;28;20486;-61
2022/10/23 10:25:58;;;;;;;11.80;3.10;;;;;;;17.57;72.80;100562.16;5053276;28;20041;-61
2022/10/23 10:28:50;;;;;;;14.25;3.17;;;;;;;17.53;73.33;100552.84;5051953;28;20055;-61
2022/10/23 10:31:29;;;;;;;9.18;2.83;;;;;;;17.71;73.62;100544.22;5053024;28;20045;-61
2022/10/23 10:34:09;;;;;;;10.70;3.28;;;;;;;17.69;72.73;100545.47;5041262;28;20111;-61
2022/10/23 10:36:45;;;;;;;10.90;3.08;;;;;;;17.78;73.14;100528.94;5047954;28;20053;-61
2022/10/23 10:39:38;;;;;;;17.25;3.28;;;;;;;17.72;72.60;100531.63;5043075;28;20654;-61
2022/10/23 10:42:26;;;;;;;14.15;2.97;;;;;;;17.69;73.18;100521.31;5045843;28;20090;-61
2022/10/23 10:45:33;;;;;;;18.35;3.35;;;;;;;17.71;73.57;100506.66;5033280;28;20057;-61
2022/10/23 10:48:22;;;;;;;12.52;2.95;;;;;;;17.70;73.64;100504.19;5032639;28;20095;-61
2022/10/23 10:51:20;;;;;;;9.13;2.95;;;;;;;17.67;73.25;100489.34;5017477;28;20631;-61
2022/10/23 10:54:14;;;;;;;12.55;2.90;;;;;;;17.60;74.60;100481.28;5040067;28;20065;-61
2022/10/23 10:56:44;;;;;;;13.15;3.00;;;;;;;17.65;73.95;100486.03;5044560;28;20049;-60
2022/10/23 10:59:29;;;;;;;19.33;3.60;;;;;;;17.63;74.06;100477.38;5054726;28;20033;-60
2022/10/23 11:02:26;;;;;;;7.70;2.67;;;;;;;17.54;75.03;100470.56;5062157;28;20442;-60
2022/10/23 11:05:12;;;;;;;11.65;3.20;;;;;;;17.55;74.68;100464.97;5048791;28;20759;-60
2022/10/23 11:07:50;;;;;;;12.32;3.15;;;;;;;17.61;74.60;100471.41;5063241;28;20041;-60
2022/10/23 11:10:18;;;;;;;12.75;2.95;;;;;;;17.64;74.10;100468.28;5052430;28;20037;-60
2022/10/23 11:12:47;;;;;;;11.85;3.17;;;;;;;17.56;75.09;100463.16;5052584;28;20067;-60
2022/10/23 11:15:19;;;;;;;10.27;2.70;;;;;;;17.58;74.64;100464.56;5051223;28;20041;-61
2022/10/23 11:17:52;;;;;;;10.07;3.08;;;;;;;17.59;74.86;100460.88;5046226;28;20044;-60
2022/10/23 11:20:49;;;;;;;9.23;2.80;;;;;;;17.53;74.79;100453.63;5048580;28;20041;-60
2022/10/23 11:23:56;;;;;;;16.05;3.08;;;;;;;17.57;74.56;100452.22;5054873;28;20118;-60
2022/10/23 11:26:39;;;;;;;8.32;2.75;;;;;;;17.48;74.07;100440.03;5055986;28;20410;-60
2022/10/23 11:29:33;;;;;;;10.82;2.83;;;;;;;17.42;74.98;100432.81;5058544;28;20480;-61
2022/10/23 11:32:29;;;;;;;11.00;2.97;;;;;;;17.46;74.23;100418.81;5055666;28;20498;-60
2022/10/23 11:35:26;;;;;;;22.55;3.30;;;;;;;17.40;74.51;100413.44;5056348;28;20048;-61
2022/10/23 11:37:59;;;;;;;10.95;2.90;;;;;;;17.38;75.47;100434.25;5055563;28;20127;-59
2022/10/23 11:40:26;;;;;;;12.48;2.65;;;;;;;17.37;74.42;100419.19;5056466;28;20045;-61
2022/10/23 11:42:53;;;;;;;16.25;3.35;;;;;;;17.43;74.52;100440.66;5056037;28;20491;-61
2022/10/23 11:45:35;;;;;;;10.07;2.97;;;;;;;17.49;74.10;100424.78;5055173;28;20131;-60
2022/10/23 11:48:19;;;;;;;9.52;3.00;;;;;;;17.82;72.51;100419.34;5056024;28;20131;-60
2022/10/23 11:53:39;;;;;;;11.73;3.33;;;;;;;18.53;69.27;100431.13;5140087;27;20123;-60
2022/10/23 11:58:54;;;;;;;11.55;2.95;;;;;;;18.65;69.21;100431.28;5171777;27;19998;-59